createdAt,value
2023-04-09T00:01:24.184Z,10.08
2023-04-09T00:03:28.923Z,10.08
2023-04-09T00:05:33.847Z,10.08
2023-04-09T00:07:38.572Z,10.07
2023-04-09T00:09:46.266Z,10.05
2023-04-09T00:11:50.948Z,10.03
2023-04-09T00:13:55.661Z,10.02
2023-04-09T00:16:00.352Z,10.00
2023-04-09T00:18:05.128Z,9.98
2023-04-09T00:20:11.491Z,9.92
2023-04-09T00:22:16.439Z,9.90
2023-04-09T00:24:21.181Z,9.88
2023-04-09T00:26:28.492Z,9.87
2023-04-09T00:28:33.192Z,9.87
2023-04-09T00:30:37.956Z,9.85
2023-04-09T00:32:42.951Z,9.85
2023-04-09T00:34:47.710Z,9.84
2023-04-09T00:36:52.663Z,9.84
2023-04-09T00:38:57.437Z,9.84
2023-04-09T00:41:02.115Z,9.86
2023-04-09T00:43:09.665Z,9.86
2023-04-09T00:45:14.681Z,9.84
2023-04-09T00:47:19.797Z,9.83
2023-04-09T00:49:26.618Z,9.80
2023-04-09T00:51:31.615Z,9.79
2023-04-09T00:53:36.312Z,9.79
2023-04-09T00:55:42.835Z,9.77
2023-04-09T00:57:47.591Z,9.76
2023-04-09T00:59:54.998Z,9.74
2023-04-09T01:01:59.762Z,9.73
2023-04-09T01:04:04.993Z,9.70
2023-04-09T01:06:18.236Z,9.66
2023-04-09T01:08:31.149Z,9.57
2023-04-09T01:10:42.161Z,9.54
2023-04-09T01:12:54.863Z,9.53
2023-04-09T01:15:08.524Z,9.49
2023-04-09T01:17:18.649Z,9.49
2023-04-09T01:19:37.800Z,9.50
2023-04-09T01:21:43.902Z,9.51
2023-04-09T01:23:56.707Z,9.49
2023-04-09T01:26:07.521Z,9.48
2023-04-09T01:28:28.594Z,9.50
2023-04-09T01:30:34.456Z,9.55
2023-04-09T01:32:41.774Z,9.57
2023-04-09T01:34:49.198Z,9.60
2023-04-09T01:36:59.735Z,9.61
2023-04-09T01:39:05.961Z,9.64
2023-04-09T01:41:14.547Z,9.66
2023-04-09T01:43:20.797Z,9.68
2023-04-09T01:45:29.157Z,9.69
2023-04-09T01:47:34.731Z,9.70
2023-04-09T01:49:41.346Z,9.69
2023-04-09T01:51:46.661Z,9.67
2023-04-09T01:53:51.643Z,9.61
2023-04-09T01:55:56.323Z,9.55
2023-04-09T01:58:01.144Z,9.52
2023-04-09T02:00:06.595Z,9.50
2023-04-09T02:02:31.501Z,9.47
2023-04-09T02:04:41.861Z,9.47
2023-04-09T02:06:51.346Z,9.47
2023-04-09T02:08:56.476Z,9.49
2023-04-09T02:11:02.148Z,9.50
2023-04-09T02:13:08.790Z,9.53
2023-04-09T02:15:15.688Z,9.55
2023-04-09T02:17:23.243Z,9.54
2023-04-09T02:19:28.120Z,9.51
2023-04-09T02:21:32.883Z,9.49
2023-04-09T02:23:37.542Z,9.48
2023-04-09T02:25:42.873Z,9.48
2023-04-09T02:27:47.679Z,9.48
2023-04-09T02:29:53.698Z,9.47
2023-04-09T02:31:58.373Z,9.48
2023-04-09T02:34:05.737Z,9.48
2023-04-09T02:36:14.736Z,9.48
2023-04-09T02:38:19.504Z,9.48
2023-04-09T02:40:24.436Z,9.47
2023-04-09T02:42:29.108Z,9.46
2023-04-09T02:44:33.798Z,9.45
2023-04-09T02:46:38.915Z,9.44
2023-04-09T02:48:43.648Z,9.44
2023-04-09T02:50:50.942Z,9.44
2023-04-09T02:52:55.656Z,9.46
2023-04-09T02:55:00.653Z,9.47
2023-04-09T02:57:05.831Z,9.47
2023-04-09T02:59:10.592Z,9.44
2023-04-09T03:01:15.337Z,9.41
2023-04-09T03:03:20.408Z,9.37
2023-04-09T03:05:25.206Z,9.33
2023-04-09T03:07:32.621Z,9.31
2023-04-09T03:09:37.335Z,9.31
2023-04-09T03:11:42.032Z,9.30
2023-04-09T03:13:46.712Z,9.30
2023-04-09T03:15:54.616Z,9.29
2023-04-09T03:17:59.383Z,9.29
2023-04-09T03:20:04.174Z,9.29
2023-04-09T03:22:13.951Z,9.30
2023-04-09T03:24:21.812Z,9.29
2023-04-09T03:26:27.388Z,9.31
2023-04-09T03:28:32.420Z,9.32
2023-04-09T03:30:37.476Z,9.33
2023-04-09T03:32:44.256Z,9.34
2023-04-09T03:34:51.132Z,9.34
2023-04-09T03:36:58.738Z,9.36
2023-04-09T03:39:07.496Z,9.36
2023-04-09T03:41:18.230Z,9.38
2023-04-09T03:43:23.058Z,9.39
2023-04-09T03:45:32.190Z,9.38
2023-04-09T03:47:50.506Z,9.35
2023-04-09T03:49:59.601Z,9.34
2023-04-09T03:52:07.246Z,9.33
2023-04-09T03:54:15.952Z,9.30
2023-04-09T03:56:24.812Z,9.26
2023-04-09T03:58:29.529Z,9.23
2023-04-09T04:00:35.649Z,9.21
2023-04-09T04:03:00.723Z,9.18
2023-04-09T04:05:27.374Z,9.16
2023-04-09T04:07:35.670Z,9.16
2023-04-09T04:09:46.096Z,9.14
2023-04-09T04:11:59.024Z,9.13
2023-04-09T04:14:16.132Z,9.11
2023-04-09T04:16:24.507Z,9.10
2023-04-09T04:18:30.402Z,9.08
2023-04-09T04:20:36.136Z,9.06
2023-04-09T04:22:46.419Z,9.02
2023-04-09T04:24:51.191Z,9.01
2023-04-09T04:27:01.266Z,9.00
2023-04-09T04:29:11.129Z,8.99
2023-04-09T04:31:41.604Z,8.95
2023-04-09T04:33:46.683Z,8.93
2023-04-09T04:35:53.212Z,8.93
2023-04-09T04:38:10.659Z,8.92
2023-04-09T04:40:16.602Z,8.92
2023-04-09T04:42:23.986Z,8.89
2023-04-09T04:44:28.926Z,8.87
2023-04-09T04:46:50.567Z,8.82
2023-04-09T04:48:55.324Z,8.81
2023-04-09T04:51:01.554Z,8.79
2023-04-09T04:53:13.656Z,8.80
2023-04-09T04:55:26.761Z,8.79
2023-04-09T04:57:34.468Z,8.78
2023-04-09T04:59:41.569Z,8.78
2023-04-09T05:01:48.767Z,8.75
2023-04-09T05:03:53.785Z,8.73
2023-04-09T05:06:16.863Z,8.69
2023-04-09T05:08:23.417Z,8.68
2023-04-09T05:10:31.007Z,8.69
2023-04-09T05:12:39.386Z,8.68
2023-04-09T05:14:45.145Z,8.69
2023-04-09T05:16:50.140Z,8.67
2023-04-09T05:18:59.608Z,8.66
2023-04-09T05:21:04.432Z,8.66
2023-04-09T05:23:13.109Z,8.65
2023-04-09T05:25:20.942Z,8.63
2023-04-09T05:27:27.736Z,8.63
2023-04-09T05:29:40.676Z,8.63
2023-04-09T05:31:46.800Z,8.67
2023-04-09T05:34:02.199Z,8.66
2023-04-09T05:36:19.580Z,8.68
2023-04-09T05:38:24.483Z,8.70
2023-04-09T05:40:35.509Z,8.71
2023-04-09T05:42:45.122Z,8.72
2023-04-09T05:44:58.610Z,8.73
2023-04-09T05:47:03.419Z,8.76
2023-04-09T05:49:15.016Z,8.78
2023-04-09T05:51:22.631Z,8.81
2023-04-09T05:53:27.830Z,8.83
2023-04-09T05:55:34.384Z,8.87
2023-04-09T05:57:40.541Z,8.88
2023-04-09T05:59:45.473Z,8.90
2023-04-09T06:01:52.849Z,8.92
2023-04-09T06:03:58.463Z,8.94
2023-04-09T06:06:06.856Z,8.98
2023-04-09T06:08:12.327Z,9.00
2023-04-09T06:10:17.065Z,9.03
2023-04-09T06:12:22.070Z,9.05
2023-04-09T06:14:26.817Z,9.06
2023-04-09T06:16:31.645Z,9.07
2023-04-09T06:18:39.919Z,9.09
2023-04-09T06:20:44.868Z,9.09
2023-04-09T06:22:49.528Z,9.11
2023-04-09T06:24:54.244Z,9.12
2023-04-09T06:26:58.905Z,9.13
2023-04-09T06:29:03.732Z,9.17
2023-04-09T06:31:08.586Z,9.19
2023-04-09T06:33:13.390Z,9.20
2023-04-09T06:35:21.135Z,9.22
2023-04-09T06:37:25.771Z,9.24
2023-04-09T06:39:30.989Z,9.26
2023-04-09T06:41:35.694Z,9.29
2023-04-09T06:43:48.925Z,9.29
2023-04-09T06:45:53.704Z,9.28
2023-04-09T06:47:59.316Z,9.31
2023-04-09T06:50:04.361Z,9.31
2023-04-09T06:52:11.575Z,9.29
2023-04-09T06:54:16.356Z,9.28
2023-04-09T06:56:21.190Z,9.25
2023-04-09T06:58:26.198Z,9.24
2023-04-09T07:00:31.014Z,9.23
2023-04-09T07:02:35.944Z,9.21
2023-04-09T07:04:41.660Z,9.19
2023-04-09T07:06:47.002Z,9.21
2023-04-09T07:08:54.599Z,9.21
2023-04-09T07:10:59.810Z,9.24
2023-04-09T07:13:04.650Z,9.25
2023-04-09T07:15:10.706Z,9.28
2023-04-09T07:17:15.569Z,9.30
2023-04-09T07:19:20.349Z,9.32
2023-04-09T07:21:25.046Z,9.35
2023-04-09T07:23:29.809Z,9.36
2023-04-09T07:25:37.781Z,9.38
2023-04-09T07:27:42.760Z,9.42
2023-04-09T07:29:47.662Z,9.48
2023-04-09T07:31:52.478Z,9.52
2023-04-09T07:33:57.514Z,9.56
2023-04-09T07:36:02.577Z,9.63
2023-04-09T07:38:07.406Z,9.68
2023-04-09T07:40:12.519Z,9.75
2023-04-09T07:42:20.252Z,9.77
2023-04-09T07:44:25.187Z,9.83
2023-04-09T07:46:30.072Z,9.89
2023-04-09T07:48:35.350Z,9.96
2023-04-09T07:50:40.060Z,10.02
2023-04-09T07:52:44.876Z,10.07
2023-04-09T07:54:49.651Z,10.12
2023-04-09T07:56:54.776Z,10.20
2023-04-09T07:59:02.138Z,10.25
2023-04-09T08:01:10.900Z,10.31
2023-04-09T08:03:15.922Z,10.35
2023-04-09T08:05:20.941Z,10.40
2023-04-09T08:07:25.664Z,10.45
2023-04-09T08:09:31.118Z,10.50
2023-04-09T08:11:36.167Z,10.54
2023-04-09T08:13:40.844Z,10.60
2023-04-09T08:15:48.316Z,10.63
2023-04-09T08:17:53.079Z,10.68
2023-04-09T08:19:58.067Z,10.71
2023-04-09T08:22:03.826Z,10.75
2023-04-09T08:24:09.501Z,10.79
2023-04-09T08:26:14.205Z,10.81
2023-04-09T08:28:18.891Z,10.85
2023-04-09T08:30:24.192Z,10.86
2023-04-09T08:32:31.696Z,10.87
2023-04-09T08:34:36.703Z,10.89
2023-04-09T08:36:41.566Z,10.92
2023-04-09T08:38:47.326Z,10.93
2023-04-09T08:40:52.098Z,10.94
2023-04-09T08:42:58.754Z,10.96
2023-04-09T08:45:06.897Z,10.98
2023-04-09T08:47:13.288Z,11.00
2023-04-09T08:49:20.877Z,11.00
2023-04-09T08:51:28.924Z,11.04
2023-04-09T08:53:33.791Z,11.05
2023-04-09T08:55:38.671Z,11.06
2023-04-09T08:57:44.072Z,11.08
2023-04-09T08:59:48.924Z,11.09
2023-04-09T09:02:09.946Z,11.10
2023-04-09T09:04:14.855Z,11.12
2023-04-09T09:06:28.150Z,11.13
2023-04-09T09:08:33.161Z,11.16
2023-04-09T09:10:42.482Z,11.17
2023-04-09T09:12:47.397Z,11.19
2023-04-09T09:14:52.070Z,11.21
2023-04-09T09:17:08.585Z,11.22
2023-04-09T09:19:33.834Z,11.23
2023-04-09T09:21:42.539Z,11.24
2023-04-09T09:23:48.519Z,11.27
2023-04-09T09:25:53.449Z,11.28
2023-04-09T09:28:09.237Z,11.28
2023-04-09T09:30:24.270Z,11.27
2023-04-09T09:32:29.009Z,11.29
2023-04-09T09:34:33.977Z,11.33
2023-04-09T09:36:41.248Z,11.32
2023-04-09T09:38:57.400Z,11.34
2023-04-09T09:41:02.378Z,11.34
2023-04-09T09:43:07.174Z,11.38
2023-04-09T09:45:21.093Z,11.39
2023-04-09T09:47:26.675Z,11.44
2023-04-09T09:49:31.568Z,11.47
2023-04-09T09:51:38.719Z,11.50
2023-04-09T09:53:49.587Z,11.52
2023-04-09T09:55:59.331Z,11.52
2023-04-09T09:58:06.485Z,11.55
2023-04-09T10:00:17.660Z,11.56
2023-04-09T10:02:27.132Z,11.58
2023-04-09T10:04:32.503Z,11.59
2023-04-09T10:06:38.879Z,11.59
2023-04-09T10:08:47.548Z,11.59
2023-04-09T10:10:53.277Z,11.60
2023-04-09T10:12:58.396Z,11.60
2023-04-09T10:15:06.254Z,11.62
2023-04-09T10:17:11.442Z,11.62
2023-04-09T10:19:17.256Z,11.62
2023-04-09T10:21:32.318Z,11.62
2023-04-09T10:23:44.677Z,11.61
2023-04-09T10:25:52.309Z,11.61
2023-04-09T10:28:17.470Z,11.61
2023-04-09T10:30:35.824Z,11.60
2023-04-09T10:32:40.759Z,11.60
2023-04-09T10:34:46.395Z,11.60
2023-04-09T10:36:55.212Z,11.60
2023-04-09T10:39:00.096Z,11.62
2023-04-09T10:41:17.431Z,11.62
2023-04-09T10:43:23.730Z,11.64
2023-04-09T10:45:41.694Z,11.66
2023-04-09T10:47:48.668Z,11.68
2023-04-09T10:49:53.448Z,11.70
2023-04-09T10:52:07.989Z,11.74
2023-04-09T10:54:51.365Z,11.78
2023-04-09T10:57:26.535Z,11.81
2023-04-09T10:59:31.216Z,11.87
2023-04-09T11:01:36.055Z,11.94
2023-04-09T11:03:48.026Z,11.99
2023-04-09T11:05:55.590Z,12.03
2023-04-09T11:08:07.327Z,12.08
2023-04-09T11:10:12.966Z,12.11
2023-04-09T11:12:17.993Z,12.14
2023-04-09T11:14:25.917Z,12.14
2023-04-09T11:16:32.825Z,12.16
2023-04-09T11:18:37.859Z,12.15
2023-04-09T11:20:43.851Z,12.15
2023-04-09T11:22:48.634Z,12.15
2023-04-09T11:24:53.720Z,12.15
2023-04-09T11:26:58.399Z,12.15
2023-04-09T11:29:08.390Z,12.14
2023-04-09T11:31:16.905Z,12.13
2023-04-09T11:33:22.551Z,12.15
2023-04-09T11:35:27.189Z,12.15
2023-04-09T11:37:32.116Z,12.15
2023-04-09T11:39:39.666Z,12.15
2023-04-09T11:41:44.526Z,12.19
2023-04-09T11:43:49.388Z,12.21
2023-04-09T11:45:55.876Z,12.27
2023-04-09T11:48:05.582Z,12.30
2023-04-09T11:50:12.348Z,12.39
2023-04-09T11:52:17.360Z,12.51
2023-04-09T11:54:22.142Z,12.61
2023-04-09T11:56:27.309Z,12.70
2023-04-09T11:58:32.319Z,12.79
2023-04-09T12:00:37.273Z,12.86
2023-04-09T12:02:43.436Z,12.94
2023-04-09T12:04:54.976Z,12.97
2023-04-09T12:07:00.727Z,13.01
2023-04-09T12:09:05.435Z,13.03
2023-04-09T12:11:13.513Z,13.02
2023-04-09T12:13:18.226Z,13.03
2023-04-09T12:15:25.033Z,13.03
2023-04-09T12:17:29.914Z,13.03
2023-04-09T12:19:34.890Z,13.03
2023-04-09T12:21:53.388Z,13.01
2023-04-09T12:23:58.129Z,13.00
2023-04-09T12:26:03.136Z,13.00
2023-04-09T12:28:09.369Z,12.99
2023-04-09T12:30:14.474Z,12.99
2023-04-09T12:32:19.573Z,12.99
2023-04-09T12:34:24.561Z,12.99
2023-04-09T12:36:30.000Z,12.98
2023-04-09T12:38:37.363Z,12.98
2023-04-09T12:40:42.248Z,12.99
2023-04-09T12:42:48.074Z,12.99
2023-04-09T12:44:52.838Z,12.98
2023-04-09T12:46:58.017Z,12.94
2023-04-09T12:49:02.800Z,12.94
2023-04-09T12:51:09.196Z,12.92
2023-04-09T12:53:14.041Z,12.90
2023-04-09T12:55:22.200Z,12.89
2023-04-09T12:57:27.173Z,12.89
2023-04-09T12:59:31.990Z,12.90
2023-04-09T13:01:36.764Z,12.93
2023-04-09T13:03:42.073Z,12.95
2023-04-09T13:05:47.404Z,13.01
2023-04-09T13:07:52.077Z,13.06
2023-04-09T13:09:56.794Z,13.11
2023-04-09T13:12:04.281Z,13.17
2023-04-09T13:14:13.633Z,13.24
2023-04-09T13:16:18.302Z,13.29
2023-04-09T13:18:23.071Z,13.33
2023-04-09T13:20:27.700Z,13.37
2023-04-09T13:22:32.643Z,13.40
2023-04-09T13:24:37.730Z,13.44
2023-04-09T13:26:43.023Z,13.48
2023-04-09T13:28:52.263Z,13.50
2023-04-09T13:30:57.641Z,13.51
2023-04-09T13:33:02.626Z,13.51
2023-04-09T13:35:09.202Z,13.53
2023-04-09T13:37:14.001Z,13.53
2023-04-09T13:39:19.040Z,13.53
2023-04-09T13:41:28.380Z,13.51
2023-04-09T13:43:34.939Z,13.50
2023-04-09T13:45:42.239Z,13.50
2023-04-09T13:47:47.138Z,13.50
2023-04-09T13:49:53.381Z,13.50
2023-04-09T13:51:59.641Z,13.50
2023-04-09T13:54:05.982Z,13.51
2023-04-09T13:56:10.973Z,13.50
2023-04-09T13:58:15.740Z,13.49
2023-04-09T14:00:20.959Z,13.52
2023-04-09T14:02:28.934Z,13.49
2023-04-09T14:04:33.810Z,13.49
2023-04-09T14:06:38.595Z,13.51
2023-04-09T14:08:43.466Z,13.51
2023-04-09T14:10:48.282Z,13.46
2023-04-09T14:12:53.390Z,13.43
2023-04-09T14:14:58.116Z,13.41
2023-04-09T14:17:03.057Z,13.42
2023-04-09T14:19:13.759Z,13.43
2023-04-09T14:21:18.635Z,13.45
2023-04-09T14:23:23.448Z,13.46
2023-04-09T14:25:28.191Z,13.48
2023-04-09T14:27:33.482Z,13.50
2023-04-09T14:29:38.531Z,13.47
2023-04-09T14:31:44.253Z,13.48
2023-04-09T14:33:49.410Z,13.49
2023-04-09T14:35:57.714Z,13.51
2023-04-09T14:38:04.510Z,13.50
2023-04-09T14:40:11.068Z,13.52
2023-04-09T14:42:16.067Z,13.52
2023-04-09T14:44:21.124Z,13.52
2023-04-09T14:46:25.981Z,13.52
2023-04-09T14:48:30.742Z,13.52
2023-04-09T14:50:36.853Z,13.52
2023-04-09T14:52:44.264Z,13.50
2023-04-09T14:54:49.046Z,13.49
2023-04-09T14:56:53.782Z,13.47
2023-04-09T14:58:58.660Z,13.44
2023-04-09T15:01:04.408Z,13.45
2023-04-09T15:03:09.248Z,13.44
2023-04-09T15:05:14.258Z,13.43
2023-04-09T15:07:19.117Z,13.43
2023-04-09T15:09:26.481Z,13.43
2023-04-09T15:11:31.208Z,13.43
2023-04-09T15:13:35.941Z,13.44
2023-04-09T15:15:44.317Z,13.44
2023-04-09T15:17:49.080Z,13.46
2023-04-09T15:19:56.511Z,13.46
2023-04-09T15:22:01.268Z,13.47
2023-04-09T15:24:06.140Z,13.47
2023-04-09T15:26:13.460Z,13.44
2023-04-09T15:28:18.249Z,13.44
2023-04-09T15:30:23.001Z,13.44
2023-04-09T15:32:27.836Z,13.42
2023-04-09T15:34:32.588Z,13.43
2023-04-09T15:36:37.286Z,13.42
2023-04-09T15:38:42.010Z,13.41
2023-04-09T15:40:46.743Z,13.40
2023-04-09T15:42:55.076Z,13.40
2023-04-09T15:44:59.789Z,13.39
2023-04-09T15:47:04.548Z,13.39
2023-04-09T15:49:09.552Z,13.38
2023-04-09T15:51:14.376Z,13.37
2023-04-09T15:53:19.871Z,13.35
2023-04-09T15:55:26.552Z,13.35
2023-04-09T15:57:31.700Z,13.33
2023-04-09T15:59:39.106Z,13.35
2023-04-09T16:01:44.440Z,13.37
2023-04-09T16:03:52.404Z,13.39
2023-04-09T16:05:57.273Z,13.41
2023-04-09T16:08:02.345Z,13.42
2023-04-09T16:10:08.166Z,13.45
2023-04-09T16:12:13.668Z,13.45
2023-04-09T16:14:18.589Z,13.46
2023-04-09T16:16:26.287Z,13.45
2023-04-09T16:18:31.077Z,13.47
2023-04-09T16:20:35.764Z,13.46
2023-04-09T16:22:40.904Z,13.46
2023-04-09T16:24:46.393Z,13.46
2023-04-09T16:26:51.194Z,13.46
2023-04-09T16:28:56.194Z,13.46
2023-04-09T16:31:01.023Z,13.43
2023-04-09T16:33:08.860Z,13.42
2023-04-09T16:35:13.629Z,13.42
2023-04-09T16:37:18.363Z,13.43
2023-04-09T16:39:23.284Z,13.40
2023-04-09T16:41:28.117Z,13.40
2023-04-09T16:43:33.084Z,13.40
2023-04-09T16:45:38.095Z,13.39
2023-04-09T16:47:42.919Z,13.38
2023-04-09T16:49:50.279Z,13.37
2023-04-09T16:51:55.034Z,13.38
2023-04-09T16:53:59.748Z,13.37
2023-04-09T16:56:04.564Z,13.35
2023-04-09T16:58:09.265Z,13.36
2023-04-09T17:00:17.526Z,13.34
2023-04-09T17:02:24.805Z,13.34
2023-04-09T17:04:30.252Z,13.34
2023-04-09T17:06:37.586Z,13.33
2023-04-09T17:08:42.336Z,13.33
2023-04-09T17:10:47.473Z,13.32
2023-04-09T17:12:52.404Z,13.32
2023-04-09T17:14:58.110Z,13.32
2023-04-09T17:17:03.339Z,13.32
2023-04-09T17:19:09.061Z,13.32
2023-04-09T17:21:13.815Z,13.31
2023-04-09T17:23:21.830Z,13.31
2023-04-09T17:25:27.291Z,13.30
2023-04-09T17:27:32.264Z,13.28
2023-04-09T17:29:37.379Z,13.27
2023-04-09T17:31:42.190Z,13.26
2023-04-09T17:33:48.796Z,13.27
2023-04-09T17:35:53.566Z,13.25
2023-04-09T17:37:58.496Z,13.25
2023-04-09T17:40:06.062Z,13.24
2023-04-09T17:42:11.907Z,13.23
2023-04-09T17:44:17.470Z,13.22
2023-04-09T17:46:22.311Z,13.23
2023-04-09T17:48:27.152Z,13.21
2023-04-09T17:50:32.026Z,13.19
2023-04-09T17:52:38.873Z,13.18
2023-04-09T17:54:45.634Z,13.17
2023-04-09T17:56:53.140Z,13.13
2023-04-09T17:58:57.884Z,13.14
2023-04-09T18:01:02.615Z,13.09
2023-04-09T18:03:08.008Z,13.07
2023-04-09T18:05:13.230Z,13.06
2023-04-09T18:07:18.120Z,13.05
2023-04-09T18:09:22.840Z,13.04
2023-04-09T18:11:28.275Z,13.02
2023-04-09T18:13:35.560Z,12.99
2023-04-09T18:15:40.410Z,12.97
2023-04-09T18:17:45.190Z,12.95
2023-04-09T18:19:50.634Z,12.93
2023-04-09T18:21:55.454Z,12.91
2023-04-09T18:24:00.453Z,12.89
2023-04-09T18:26:05.178Z,12.88
2023-04-09T18:28:10.161Z,12.87
2023-04-09T18:30:17.838Z,12.83
2023-04-09T18:32:23.776Z,12.82
2023-04-09T18:34:29.237Z,12.81
2023-04-09T18:36:33.994Z,12.79
2023-04-09T18:38:38.709Z,12.78
2023-04-09T18:40:44.270Z,12.75
2023-04-09T18:42:53.156Z,12.72
2023-04-09T18:44:57.961Z,12.72
2023-04-09T18:47:06.010Z,12.69
2023-04-09T18:49:10.881Z,12.67
2023-04-09T18:51:15.794Z,12.64
2023-04-09T18:53:20.728Z,12.63
2023-04-09T18:55:25.486Z,12.61
2023-04-09T18:57:30.305Z,12.57
2023-04-09T18:59:35.610Z,12.55
2023-04-09T19:01:40.597Z,12.53
2023-04-09T19:03:48.464Z,12.51
2023-04-09T19:05:54.280Z,12.49
2023-04-09T19:08:01.556Z,12.49
2023-04-09T19:10:07.022Z,12.48
2023-04-09T19:12:11.884Z,12.45
2023-04-09T19:14:16.606Z,12.42
2023-04-09T19:16:22.180Z,12.41
2023-04-09T19:18:27.065Z,12.38
2023-04-09T19:20:34.598Z,12.36
2023-04-09T19:22:39.355Z,12.34
2023-04-09T19:24:46.402Z,12.32
2023-04-09T19:26:52.975Z,12.32
2023-04-09T19:28:57.881Z,12.31
2023-04-09T19:31:03.798Z,12.30
2023-04-09T19:33:08.750Z,12.30
2023-04-09T19:35:13.648Z,12.30
2023-04-09T19:37:24.015Z,12.28
2023-04-09T19:39:28.744Z,12.27
2023-04-09T19:41:33.440Z,12.25
2023-04-09T19:43:39.458Z,12.25
2023-04-09T19:45:45.573Z,12.23
2023-04-09T19:47:50.667Z,12.22
2023-04-09T19:49:55.563Z,12.22
2023-04-09T19:52:00.502Z,12.21
2023-04-09T19:54:09.974Z,12.18
2023-04-09T19:56:14.901Z,12.17
2023-04-09T19:58:20.029Z,12.15
2023-04-09T20:00:24.973Z,12.14
2023-04-09T20:02:29.928Z,12.13
2023-04-09T20:04:34.876Z,12.11
2023-04-09T20:06:40.844Z,12.08
2023-04-09T20:08:46.189Z,12.05
2023-04-09T20:10:53.743Z,12.01
2023-04-09T20:12:58.519Z,11.99
2023-04-09T20:15:05.811Z,11.96
2023-04-09T20:17:12.341Z,11.93
2023-04-09T20:19:17.346Z,11.91
2023-04-09T20:21:22.202Z,11.90
2023-04-09T20:23:27.023Z,11.87
2023-04-09T20:25:35.094Z,11.85
2023-04-09T20:27:42.550Z,11.81
2023-04-09T20:29:48.252Z,11.78
2023-04-09T20:31:53.065Z,11.76
2023-04-09T20:33:58.145Z,11.74
2023-04-09T20:36:03.724Z,11.73
2023-04-09T20:38:08.629Z,11.72
2023-04-09T20:40:15.019Z,11.70
2023-04-09T20:42:20.012Z,11.70
2023-04-09T20:44:27.667Z,11.68
2023-04-09T20:46:32.635Z,11.68
2023-04-09T20:48:37.481Z,11.67
2023-04-09T20:50:42.405Z,11.65
2023-04-09T20:52:47.685Z,11.64
2023-04-09T20:54:52.507Z,11.61
2023-04-09T20:56:57.260Z,11.59
2023-04-09T20:59:02.550Z,11.56
2023-04-09T21:01:11.391Z,11.52
2023-04-09T21:03:16.520Z,11.51
2023-04-09T21:05:23.972Z,11.48
2023-04-09T21:07:29.299Z,11.46
2023-04-09T21:09:34.409Z,11.43
2023-04-09T21:11:39.263Z,11.42
2023-04-09T21:13:54.096Z,11.41
2023-04-09T21:16:00.556Z,11.40
2023-04-09T21:18:08.032Z,11.38
2023-04-09T21:20:15.242Z,11.39
2023-04-09T21:22:20.035Z,11.37
2023-04-09T21:24:24.981Z,11.38
2023-04-09T21:26:38.383Z,11.36
2023-04-09T21:28:54.026Z,11.35
2023-04-09T21:30:59.010Z,11.34
2023-04-09T21:33:08.562Z,11.34
2023-04-09T21:35:13.432Z,11.35
2023-04-09T21:37:18.417Z,11.35
2023-04-09T21:39:23.329Z,11.37
2023-04-09T21:41:28.533Z,11.36
2023-04-09T21:43:33.555Z,11.36
2023-04-09T21:45:38.403Z,11.37
2023-04-09T21:47:43.344Z,11.39
2023-04-09T21:49:51.010Z,11.39
2023-04-09T21:51:56.924Z,11.40
2023-04-09T21:54:07.123Z,11.38
2023-04-09T21:56:12.607Z,11.38
2023-04-09T21:58:17.547Z,11.37
2023-04-09T22:00:22.291Z,11.35
2023-04-09T22:02:27.318Z,11.32
2023-04-09T22:04:32.320Z,11.31
2023-04-09T22:06:40.338Z,11.30
2023-04-09T22:08:55.431Z,11.30
2023-04-09T22:11:01.461Z,11.30
2023-04-09T22:13:06.312Z,11.29
2023-04-09T22:15:12.449Z,11.28
2023-04-09T22:17:17.529Z,11.28
2023-04-09T22:19:22.354Z,11.27
2023-04-09T22:21:27.852Z,11.27
2023-04-09T22:23:36.088Z,11.24
2023-04-09T22:25:40.861Z,11.23
2023-04-09T22:27:45.989Z,11.21
2023-04-09T22:29:51.004Z,11.20
2023-04-09T22:31:56.038Z,11.16
2023-04-09T22:34:09.948Z,11.12
2023-04-09T22:36:22.415Z,11.09
2023-04-09T22:38:27.500Z,11.05
2023-04-09T22:40:35.290Z,11.02
2023-04-09T22:42:41.392Z,10.97
2023-04-09T22:44:46.255Z,10.96
2023-04-09T22:46:51.174Z,10.93
2023-04-09T22:49:04.163Z,10.91
2023-04-09T22:51:10.432Z,10.88
2023-04-09T22:53:18.901Z,10.86
2023-04-09T22:55:24.619Z,10.86
2023-04-09T22:57:32.558Z,10.82
2023-04-09T22:59:40.596Z,10.81
2023-04-09T23:01:46.119Z,10.78
2023-04-09T23:03:51.523Z,10.76
2023-04-09T23:05:56.535Z,10.75
2023-04-09T23:08:01.431Z,10.73
2023-04-09T23:10:06.234Z,10.72
2023-04-09T23:12:10.999Z,10.71
2023-04-09T23:14:18.420Z,10.68
2023-04-09T23:16:23.518Z,10.66
2023-04-09T23:18:28.359Z,10.64
2023-04-09T23:20:33.211Z,10.62
2023-04-09T23:22:38.176Z,10.58
2023-04-09T23:24:43.647Z,10.54
2023-04-09T23:26:48.571Z,10.50
2023-04-09T23:28:53.462Z,10.46
2023-04-09T23:31:01.321Z,10.43
2023-04-09T23:33:06.914Z,10.42
2023-04-09T23:35:12.412Z,10.39
2023-04-09T23:37:17.220Z,10.37
2023-04-09T23:39:22.404Z,10.34
2023-04-09T23:41:27.689Z,10.33
2023-04-09T23:43:32.721Z,10.30
2023-04-09T23:45:37.566Z,10.28
2023-04-09T23:47:45.029Z,10.24
2023-04-09T23:49:49.857Z,10.23
2023-04-09T23:51:54.630Z,10.19
2023-04-09T23:54:00.565Z,10.15
2023-04-09T23:56:05.818Z,10.13
2023-04-09T23:58:11.008Z,10.10
